Aérodrome :
LOGIN :

S'inscrire | Disclaimer

   EN    FR    IT 

 










Légende :    VFR   VFR Marginal   IFR   IFR Intensif   IFR Très Intensif
Visi : 
Plafond : 
>= 8 km
>= 3000ft
5 à 8 km
1000 à 3000 ft
1500m à 5 km
500 à 1000 ft
800 à 1500m
200 à 500 ft
< 800m
< 200 ft
Symboles :   Orages  Brouillard  Fortes neiges  Fortes précipitations  Vent > 20 kt
SIGMETs :   Divers  Orages  Givrage  Turbulence  Onde Orograph.  Cendres Volcan.






- Altitude de l'aérodrome : 270 ft
- Code IATA : OXF


EGTK - Oxford (Kidlington)

DERNIER METAR :
  • 161950Z 25032G45KT 9999 +SHRA SQ FEW010 SCT018 05/03 Q0998

METARs EXPIRÉS :
  • 161920Z 22018KT 9999 SCT037 07/03 Q0997
  • 161850Z 22017KT 9999 SCT035 07/04 Q0996
  • 161820Z 22017KT 9999 SCT040 07/04 Q0996
  • 161750Z 22017KT 9999 VCSH SCT040 07/05 Q0995
  • 161720Z 22018KT 9999 FEW033 07/05 Q0995

TAF TAF EGTK
Valide du 16 à 18h jusqu'au 16 à 23h UTC


161703Z 1618/1623 24018G28KT 9999 FEW020
TEMPO 1618/1623 6000 SHRA
PROB30
TEMPO 1618/1623 24025G38KT 4000 +SHRA BKN014CB



MET'MAP, la Météo Aéronautique d'un coup d'oeil ! - Copyright ORBIFLY Décembre 2007 - Disclaimer

ORBIFLY MET'MAP TEAM :

Programmation & Développement : Alexandra Zaïnal
Sur une idée originale de : Baudouin d'Aumeries
Assistance à la programmation : Marc-Olivier Méhu
Soutien technique & logistique : Manuel Goepfert

Contact : metmap@orbifly.com




SOURCES & CREDITS :

   NOAA